Terminal Aerodrome Forecast
Issued by NWS

Home | Current Version | Previous Version | Text Only | Print | Product List | Glossary On
Versions: 1 2 3 4 5 6 7 8 9 10 11 12 13 14 15 16 17 18 19 20 21 22 23 24 25 26 27 28 29 30 31 32 33 34 35 36 37 38 39 40 41 42
000
FTUS43 KDMX 282320
TAFFOD
TAF
KFOD 282320Z 2900/2924 14007KT P6SM BKN150
     FM290300 15004KT 3SM BR SCT007 BKN150
     FM290800 17004KT 1SM BR SCT002 BKN007
     FM291300 19007KT 6SM BR SCT007 SCT150
     FM291600 22009KT P6SM SCT150=

USA.gov is the U.S. government's official web portal to all federal, state and local government web resources and services.